sensor_id;sensor_type;location;lat;lon;timestamp;P1;durP1;ratioP1;P2;durP2;ratioP2
70297;SDS011;57702;44.420;20.298;2022-12-29T00:00:10;38.10;;;9.82;;
70297;SDS011;57702;44.420;20.298;2022-12-29T00:02:37;40.95;;;13.20;;
70297;SDS011;57702;44.420;20.298;2022-12-29T00:05:03;13.68;;;7.57;;
70297;SDS011;57702;44.420;20.298;2022-12-29T00:07:29;18.50;;;8.77;;
70297;SDS011;57702;44.420;20.298;2022-12-29T00:09:55;22.85;;;9.52;;
70297;SDS011;57702;44.420;20.298;2022-12-29T00:12:21;14.57;;;8.32;;
70297;SDS011;57702;44.420;20.298;2022-12-29T00:14:47;14.63;;;7.63;;
70297;SDS011;57702;44.420;20.298;2022-12-29T00:17:32;25.67;;;11.38;;
70297;SDS011;57702;44.420;20.298;2022-12-29T00:19:58;22.08;;;11.45;;
70297;SDS011;57702;44.420;20.298;2022-12-29T00:22:43;69.45;;;17.27;;
70297;SDS011;57702;44.420;20.298;2022-12-29T00:25:27;32.20;;;8.85;;
70297;SDS011;57702;44.420;20.298;2022-12-29T00:28:12;24.35;;;10.05;;
70297;SDS011;57702;44.420;20.298;2022-12-29T00:31:00;19.08;;;10.02;;
70297;SDS011;57702;44.420;20.298;2022-12-29T00:33:44;25.50;;;11.20;;
70297;SDS011;57702;44.420;20.298;2022-12-29T00:36:46;24.27;;;11.52;;
70297;SDS011;57702;44.420;20.298;2022-12-29T00:39:13;52.75;;;15.57;;
70297;SDS011;57702;44.420;20.298;2022-12-29T00:42:08;45.55;;;13.93;;
70297;SDS011;57702;44.420;20.298;2022-12-29T00:44:53;25.08;;;11.77;;
70297;SDS011;57702;44.420;20.298;2022-12-29T00:47:19;27.08;;;12.85;;
70297;SDS011;57702;44.420;20.298;2022-12-29T00:49:46;36.88;;;15.93;;
70297;SDS011;57702;44.420;20.298;2022-12-29T00:52:12;28.42;;;10.38;;
70297;SDS011;57702;44.420;20.298;2022-12-29T00:54:38;27.77;;;12.38;;
70297;SDS011;57702;44.420;20.298;2022-12-29T00:57:05;14.02;;;10.35;;
70297;SDS011;57702;44.420;20.298;2022-12-29T00:59:32;26.92;;;12.38;;
70297;SDS011;57702;44.420;20.298;2022-12-29T01:01:58;33.33;;;11.50;;
70297;SDS011;57702;44.420;20.298;2022-12-29T01:04:24;25.40;;;10.52;;
70297;SDS011;57702;44.420;20.298;2022-12-29T01:06:51;34.00;;;11.75;;
70297;SDS011;57702;44.420;20.298;2022-12-29T01:09:18;18.23;;;8.02;;
70297;SDS011;57702;44.420;20.298;2022-12-29T01:12:03;19.35;;;11.60;;
70297;SDS011;57702;44.420;20.298;2022-12-29T01:14:30;28.00;;;10.32;;
70297;SDS011;57702;44.420;20.298;2022-12-29T01:16:56;26.08;;;12.88;;
70297;SDS011;57702;44.420;20.298;2022-12-29T01:19:23;27.08;;;12.10;;
70297;SDS011;57702;44.420;20.298;2022-12-29T01:21:49;26.40;;;11.68;;
70297;SDS011;57702;44.420;20.298;2022-12-29T01:24:16;35.97;;;11.30;;
70297;SDS011;57702;44.420;20.298;2022-12-29T01:26:42;24.30;;;11.35;;
70297;SDS011;57702;44.420;20.298;2022-12-29T01:29:08;32.47;;;12.27;;
70297;SDS011;57702;44.420;20.298;2022-12-29T01:31:35;42.22;;;11.68;;
70297;SDS011;57702;44.420;20.298;2022-12-29T01:34:01;28.95;;;11.02;;
70297;SDS011;57702;44.420;20.298;2022-12-29T01:36:27;46.92;;;16.55;;
70297;SDS011;57702;44.420;20.298;2022-12-29T01:38:53;17.92;;;11.18;;
70297;SDS011;57702;44.420;20.298;2022-12-29T01:41:20;12.52;;;7.30;;
70297;SDS011;57702;44.420;20.298;2022-12-29T01:43:48;14.05;;;8.32;;
70297;SDS011;57702;44.420;20.298;2022-12-29T01:48:53;34.00;;;11.57;;
70297;SDS011;57702;44.420;20.298;2022-12-29T01:51:24;34.25;;;11.55;;
70297;SDS011;57702;44.420;20.298;2022-12-29T01:53:53;23.20;;;9.43;;
70297;SDS011;57702;44.420;20.298;2022-12-29T01:56:20;10.60;;;7.22;;
70297;SDS011;57702;44.420;20.298;2022-12-29T01:58:47;28.77;;;8.50;;
70297;SDS011;57702;44.420;20.298;2022-12-29T02:01:14;15.75;;;9.52;;
70297;SDS011;57702;44.420;20.298;2022-12-29T02:03:41;23.52;;;7.00;;
70297;SDS011;57702;44.420;20.298;2022-12-29T02:06:10;21.77;;;9.05;;
70297;SDS011;57702;44.420;20.298;2022-12-29T02:08:37;20.33;;;7.20;;
70297;SDS011;57702;44.420;20.298;2022-12-29T02:11:04;22.58;;;8.55;;
70297;SDS011;57702;44.420;20.298;2022-12-29T02:13:31;27.55;;;9.27;;
70297;SDS011;57702;44.420;20.298;2022-12-29T02:16:04;16.70;;;5.40;;
70297;SDS011;57702;44.420;20.298;2022-12-29T02:18:46;29.98;;;8.98;;
70297;SDS011;57702;44.420;20.298;2022-12-29T02:24:07;10.80;;;8.00;;
70297;SDS011;57702;44.420;20.298;2022-12-29T02:31:58;18.67;;;7.90;;
70297;SDS011;57702;44.420;20.298;2022-12-29T02:34:33;8.27;;;6.57;;
70297;SDS011;57702;44.420;20.298;2022-12-29T02:37:07;24.23;;;10.05;;
70297;SDS011;57702;44.420;20.298;2022-12-29T02:42:20;10.40;;;9.18;;
70297;SDS011;57702;44.420;20.298;2022-12-29T02:47:16;31.90;;;14.38;;
70297;SDS011;57702;44.420;20.298;2022-12-29T02:49:58;27.67;;;12.30;;
70297;SDS011;57702;44.420;20.298;2022-12-29T02:52:27;23.23;;;13.48;;
70297;SDS011;57702;44.420;20.298;2022-12-29T02:54:54;10.68;;;7.65;;
70297;SDS011;57702;44.420;20.298;2022-12-29T02:59:47;27.33;;;12.30;;
70297;SDS011;57702;44.420;20.298;2022-12-29T03:02:39;13.40;;;9.35;;
70297;SDS011;57702;44.420;20.298;2022-12-29T03:10:17;31.35;;;12.85;;
70297;SDS011;57702;44.420;20.298;2022-12-29T03:12:52;30.38;;;11.63;;
70297;SDS011;57702;44.420;20.298;2022-12-29T03:16:13;11.25;;;7.85;;
70297;SDS011;57702;44.420;20.298;2022-12-29T03:18:34;28.23;;;10.45;;
70297;SDS011;57702;44.420;20.298;2022-12-29T03:21:08;37.35;;;8.02;;
70297;SDS011;57702;44.420;20.298;2022-12-29T03:26:02;30.45;;;11.23;;
70297;SDS011;57702;44.420;20.298;2022-12-29T03:28:31;13.18;;;8.60;;
70297;SDS011;57702;44.420;20.298;2022-12-29T03:31:00;25.95;;;9.98;;
70297;SDS011;57702;44.420;20.298;2022-12-29T03:33:27;27.45;;;11.10;;
70297;SDS011;57702;44.420;20.298;2022-12-29T03:35:56;18.83;;;9.27;;
70297;SDS011;57702;44.420;20.298;2022-12-29T03:40:52;24.05;;;8.35;;
70297;SDS011;57702;44.420;20.298;2022-12-29T03:43:18;14.45;;;8.93;;
70297;SDS011;57702;44.420;20.298;2022-12-29T03:45:45;6.45;;;5.60;;
70297;SDS011;57702;44.420;20.298;2022-12-29T03:48:11;9.07;;;6.20;;
70297;SDS011;57702;44.420;20.298;2022-12-29T03:50:37;18.27;;;6.60;;
70297;SDS011;57702;44.420;20.298;2022-12-29T03:53:03;8.88;;;6.82;;
70297;SDS011;57702;44.420;20.298;2022-12-29T03:55:30;11.77;;;6.75;;
70297;SDS011;57702;44.420;20.298;2022-12-29T03:57:56;7.53;;;5.25;;
70297;SDS011;57702;44.420;20.298;2022-12-29T04:00:22;17.92;;;6.63;;
70297;SDS011;57702;44.420;20.298;2022-12-29T04:02:48;12.68;;;6.90;;
70297;SDS011;57702;44.420;20.298;2022-12-29T04:05:14;26.92;;;8.15;;
70297;SDS011;57702;44.420;20.298;2022-12-29T04:07:40;13.50;;;5.75;;
70297;SDS011;57702;44.420;20.298;2022-12-29T04:10:07;24.38;;;8.10;;
70297;SDS011;57702;44.420;20.298;2022-12-29T04:12:33;30.13;;;10.60;;
70297;SDS011;57702;44.420;20.298;2022-12-29T04:14:59;10.48;;;7.07;;
70297;SDS011;57702;44.420;20.298;2022-12-29T04:17:25;19.70;;;7.47;;
70297;SDS011;57702;44.420;20.298;2022-12-29T04:19:51;25.25;;;10.50;;
70297;SDS011;57702;44.420;20.298;2022-12-29T04:22:38;12.85;;;5.18;;
70297;SDS011;57702;44.420;20.298;2022-12-29T04:25:04;9.02;;;5.15;;
70297;SDS011;57702;44.420;20.298;2022-12-29T04:27:30;8.90;;;4.72;;
70297;SDS011;57702;44.420;20.298;2022-12-29T04:29:56;16.52;;;5.43;;
70297;SDS011;57702;44.420;20.298;2022-12-29T04:32:22;26.70;;;6.82;;
70297;SDS011;57702;44.420;20.298;2022-12-29T04:34:48;6.80;;;4.60;;
70297;SDS011;57702;44.420;20.298;2022-12-29T04:37:15;12.82;;;5.63;;
70297;SDS011;57702;44.420;20.298;2022-12-29T04:39:41;34.05;;;7.03;;
70297;SDS011;57702;44.420;20.298;2022-12-29T04:42:07;26.42;;;7.05;;
70297;SDS011;57702;44.420;20.298;2022-12-29T04:44:33;19.95;;;6.95;;
70297;SDS011;57702;44.420;20.298;2022-12-29T04:46:59;12.77;;;8.82;;
70297;SDS011;57702;44.420;20.298;2022-12-29T04:49:25;15.00;;;9.05;;
70297;SDS011;57702;44.420;20.298;2022-12-29T04:51:52;18.95;;;8.73;;
70297;SDS011;57702;44.420;20.298;2022-12-29T04:54:18;13.07;;;8.00;;
70297;SDS011;57702;44.420;20.298;2022-12-29T04:56:44;24.20;;;8.93;;
70297;SDS011;57702;44.420;20.298;2022-12-29T04:59:10;11.10;;;6.85;;
70297;SDS011;57702;44.420;20.298;2022-12-29T05:01:36;26.98;;;10.32;;
70297;SDS011;57702;44.420;20.298;2022-12-29T05:04:02;19.77;;;8.68;;
70297;SDS011;57702;44.420;20.298;2022-12-29T05:06:29;18.92;;;11.02;;
70297;SDS011;57702;44.420;20.298;2022-12-29T05:08:55;34.08;;;11.52;;
70297;SDS011;57702;44.420;20.298;2022-12-29T05:11:21;15.18;;;10.95;;
70297;SDS011;57702;44.420;20.298;2022-12-29T05:13:47;27.65;;;12.80;;
70297;SDS011;57702;44.420;20.298;2022-12-29T05:16:14;29.60;;;14.82;;
70297;SDS011;57702;44.420;20.298;2022-12-29T05:18:40;28.15;;;14.48;;
70297;SDS011;57702;44.420;20.298;2022-12-29T05:21:06;20.80;;;11.05;;
70297;SDS011;57702;44.420;20.298;2022-12-29T05:23:32;38.80;;;16.35;;
70297;SDS011;57702;44.420;20.298;2022-12-29T05:25:58;15.27;;;9.65;;
70297;SDS011;57702;44.420;20.298;2022-12-29T05:28:25;24.75;;;15.20;;
70297;SDS011;57702;44.420;20.298;2022-12-29T05:30:51;38.05;;;9.98;;
70297;SDS011;57702;44.420;20.298;2022-12-29T05:33:17;31.55;;;10.68;;
70297;SDS011;57702;44.420;20.298;2022-12-29T05:35:44;31.05;;;11.98;;
70297;SDS011;57702;44.420;20.298;2022-12-29T05:38:10;22.17;;;12.05;;
70297;SDS011;57702;44.420;20.298;2022-12-29T05:40:37;35.88;;;10.05;;
70297;SDS011;57702;44.420;20.298;2022-12-29T05:43:03;25.52;;;10.52;;
70297;SDS011;57702;44.420;20.298;2022-12-29T05:45:29;14.27;;;9.70;;
70297;SDS011;57702;44.420;20.298;2022-12-29T05:47:55;29.83;;;9.90;;
70297;SDS011;57702;44.420;20.298;2022-12-29T05:50:21;13.43;;;7.55;;
70297;SDS011;57702;44.420;20.298;2022-12-29T05:52:48;21.15;;;11.73;;
70297;SDS011;57702;44.420;20.298;2022-12-29T05:55:14;49.42;;;11.63;;
70297;SDS011;57702;44.420;20.298;2022-12-29T05:57:40;33.80;;;16.23;;
70297;SDS011;57702;44.420;20.298;2022-12-29T06:00:06;27.48;;;10.20;;
70297;SDS011;57702;44.420;20.298;2022-12-29T06:02:33;42.45;;;12.02;;
70297;SDS011;57702;44.420;20.298;2022-12-29T06:04:59;15.77;;;8.52;;
70297;SDS011;57702;44.420;20.298;2022-12-29T06:07:25;21.83;;;7.72;;
70297;SDS011;57702;44.420;20.298;2022-12-29T06:09:52;19.13;;;10.43;;
70297;SDS011;57702;44.420;20.298;2022-12-29T06:12:18;18.27;;;9.55;;
70297;SDS011;57702;44.420;20.298;2022-12-29T06:14:44;29.33;;;11.43;;
70297;SDS011;57702;44.420;20.298;2022-12-29T06:17:10;17.33;;;8.57;;
70297;SDS011;57702;44.420;20.298;2022-12-29T06:19:36;15.77;;;6.93;;
70297;SDS011;57702;44.420;20.298;2022-12-29T06:22:02;26.25;;;12.57;;
70297;SDS011;57702;44.420;20.298;2022-12-29T06:24:29;16.15;;;8.75;;
70297;SDS011;57702;44.420;20.298;2022-12-29T06:26:56;27.70;;;8.65;;
70297;SDS011;57702;44.420;20.298;2022-12-29T06:29:22;19.95;;;10.60;;
70297;SDS011;57702;44.420;20.298;2022-12-29T06:31:48;17.48;;;8.15;;
70297;SDS011;57702;44.420;20.298;2022-12-29T06:34:16;36.30;;;9.00;;
70297;SDS011;57702;44.420;20.298;2022-12-29T06:36:42;28.45;;;6.65;;
70297;SDS011;57702;44.420;20.298;2022-12-29T06:39:09;21.88;;;11.32;;
70297;SDS011;57702;44.420;20.298;2022-12-29T06:41:36;10.27;;;7.25;;
70297;SDS011;57702;44.420;20.298;2022-12-29T06:44:03;28.52;;;10.40;;
70297;SDS011;57702;44.420;20.298;2022-12-29T06:46:29;33.83;;;14.52;;
70297;SDS011;57702;44.420;20.298;2022-12-29T06:48:55;13.98;;;9.02;;
70297;SDS011;57702;44.420;20.298;2022-12-29T06:51:21;13.68;;;7.68;;
70297;SDS011;57702;44.420;20.298;2022-12-29T06:53:48;21.02;;;9.13;;
70297;SDS011;57702;44.420;20.298;2022-12-29T06:56:14;14.88;;;12.25;;
70297;SDS011;57702;44.420;20.298;2022-12-29T06:58:40;104.90;;;23.73;;
70297;SDS011;57702;44.420;20.298;2022-12-29T07:01:06;148.05;;;33.50;;
70297;SDS011;57702;44.420;20.298;2022-12-29T07:03:33;63.75;;;22.92;;
70297;SDS011;57702;44.420;20.298;2022-12-29T07:05:59;99.55;;;30.70;;
70297;SDS011;57702;44.420;20.298;2022-12-29T07:08:25;86.93;;;24.58;;
70297;SDS011;57702;44.420;20.298;2022-12-29T07:10:51;94.30;;;38.45;;
70297;SDS011;57702;44.420;20.298;2022-12-29T07:13:20;51.50;;;20.55;;
70297;SDS011;57702;44.420;20.298;2022-12-29T07:15:54;48.38;;;20.50;;
70297;SDS011;57702;44.420;20.298;2022-12-29T07:18:24;59.58;;;27.33;;
70297;SDS011;57702;44.420;20.298;2022-12-29T07:20:50;63.17;;;22.77;;
70297;SDS011;57702;44.420;20.298;2022-12-29T07:23:16;129.50;;;41.47;;
70297;SDS011;57702;44.420;20.298;2022-12-29T07:25:42;73.95;;;35.63;;
70297;SDS011;57702;44.420;20.298;2022-12-29T07:28:08;66.28;;;29.05;;
70297;SDS011;57702;44.420;20.298;2022-12-29T07:30:36;34.55;;;19.52;;
70297;SDS011;57702;44.420;20.298;2022-12-29T07:33:02;30.63;;;15.25;;
70297;SDS011;57702;44.420;20.298;2022-12-29T07:35:29;32.50;;;15.43;;
70297;SDS011;57702;44.420;20.298;2022-12-29T07:37:55;41.47;;;13.63;;
70297;SDS011;57702;44.420;20.298;2022-12-29T07:40:21;55.85;;;16.67;;
70297;SDS011;57702;44.420;20.298;2022-12-29T07:42:47;40.13;;;17.73;;
70297;SDS011;57702;44.420;20.298;2022-12-29T07:45:14;34.33;;;15.15;;
70297;SDS011;57702;44.420;20.298;2022-12-29T07:47:40;52.50;;;14.43;;
70297;SDS011;57702;44.420;20.298;2022-12-29T07:50:06;22.58;;;13.35;;
70297;SDS011;57702;44.420;20.298;2022-12-29T07:52:32;31.90;;;11.60;;
70297;SDS011;57702;44.420;20.298;2022-12-29T07:54:59;38.88;;;16.00;;
70297;SDS011;57702;44.420;20.298;2022-12-29T07:57:25;33.75;;;15.75;;
70297;SDS011;57702;44.420;20.298;2022-12-29T07:59:51;27.67;;;13.05;;
70297;SDS011;57702;44.420;20.298;2022-12-29T08:02:17;15.25;;;10.10;;
70297;SDS011;57702;44.420;20.298;2022-12-29T08:04:44;25.75;;;14.30;;
70297;SDS011;57702;44.420;20.298;2022-12-29T08:07:10;36.15;;;12.18;;
70297;SDS011;57702;44.420;20.298;2022-12-29T08:09:36;20.98;;;9.88;;
70297;SDS011;57702;44.420;20.298;2022-12-29T08:12:02;23.50;;;13.10;;
70297;SDS011;57702;44.420;20.298;2022-12-29T08:14:29;20.40;;;10.23;;
70297;SDS011;57702;44.420;20.298;2022-12-29T08:16:55;37.55;;;14.52;;
70297;SDS011;57702;44.420;20.298;2022-12-29T08:19:21;19.08;;;8.63;;
70297;SDS011;57702;44.420;20.298;2022-12-29T08:21:48;27.63;;;10.52;;
70297;SDS011;57702;44.420;20.298;2022-12-29T08:24:14;20.20;;;9.50;;
70297;SDS011;57702;44.420;20.298;2022-12-29T08:26:40;39.42;;;15.50;;
70297;SDS011;57702;44.420;20.298;2022-12-29T08:29:06;14.23;;;11.38;;
70297;SDS011;57702;44.420;20.298;2022-12-29T08:31:33;19.42;;;10.27;;
70297;SDS011;57702;44.420;20.298;2022-12-29T08:33:59;12.15;;;7.53;;
70297;SDS011;57702;44.420;20.298;2022-12-29T08:36:26;31.38;;;11.98;;
70297;SDS011;57702;44.420;20.298;2022-12-29T08:38:53;25.45;;;11.80;;
70297;SDS011;57702;44.420;20.298;2022-12-29T08:41:19;43.90;;;15.57;;
70297;SDS011;57702;44.420;20.298;2022-12-29T08:43:49;37.63;;;12.23;;
70297;SDS011;57702;44.420;20.298;2022-12-29T08:46:16;30.55;;;11.52;;
70297;SDS011;57702;44.420;20.298;2022-12-29T08:48:42;19.27;;;10.82;;
70297;SDS011;57702;44.420;20.298;2022-12-29T08:51:08;27.60;;;11.23;;
70297;SDS011;57702;44.420;20.298;2022-12-29T08:53:34;21.45;;;13.43;;
70297;SDS011;57702;44.420;20.298;2022-12-29T08:56:01;37.20;;;17.10;;
70297;SDS011;57702;44.420;20.298;2022-12-29T08:58:27;55.33;;;21.75;;
70297;SDS011;57702;44.420;20.298;2022-12-29T09:00:54;50.78;;;25.00;;
70297;SDS011;57702;44.420;20.298;2022-12-29T09:03:21;56.67;;;27.10;;
70297;SDS011;57702;44.420;20.298;2022-12-29T09:05:48;54.88;;;24.40;;
70297;SDS011;57702;44.420;20.298;2022-12-29T09:08:14;45.33;;;17.55;;
70297;SDS011;57702;44.420;20.298;2022-12-29T09:10:41;34.55;;;17.73;;
70297;SDS011;57702;44.420;20.298;2022-12-29T09:13:07;35.72;;;18.25;;
70297;SDS011;57702;44.420;20.298;2022-12-29T09:15:33;31.40;;;15.15;;
70297;SDS011;57702;44.420;20.298;2022-12-29T09:18:00;28.98;;;14.40;;
70297;SDS011;57702;44.420;20.298;2022-12-29T09:20:26;30.00;;;15.07;;
70297;SDS011;57702;44.420;20.298;2022-12-29T09:22:53;31.63;;;13.98;;
70297;SDS011;57702;44.420;20.298;2022-12-29T09:25:19;29.33;;;14.77;;
70297;SDS011;57702;44.420;20.298;2022-12-29T09:27:47;24.10;;;12.32;;
70297;SDS011;57702;44.420;20.298;2022-12-29T09:30:14;24.75;;;9.98;;
70297;SDS011;57702;44.420;20.298;2022-12-29T09:32:40;33.17;;;10.27;;
70297;SDS011;57702;44.420;20.298;2022-12-29T09:35:07;33.85;;;12.65;;
70297;SDS011;57702;44.420;20.298;2022-12-29T09:37:33;41.88;;;17.90;;
70297;SDS011;57702;44.420;20.298;2022-12-29T09:39:59;66.78;;;16.60;;
70297;SDS011;57702;44.420;20.298;2022-12-29T09:42:38;39.25;;;15.57;;
70297;SDS011;57702;44.420;20.298;2022-12-29T09:48:06;37.63;;;15.23;;
70297;SDS011;57702;44.420;20.298;2022-12-29T09:50:37;41.20;;;15.55;;
70297;SDS011;57702;44.420;20.298;2022-12-29T09:53:08;46.22;;;14.25;;
70297;SDS011;57702;44.420;20.298;2022-12-29T09:55:50;91.18;;;20.20;;
70297;SDS011;57702;44.420;20.298;2022-12-29T10:01:06;31.65;;;14.50;;
70297;SDS011;57702;44.420;20.298;2022-12-29T10:06:14;23.52;;;9.98;;
70297;SDS011;57702;44.420;20.298;2022-12-29T10:08:48;13.23;;;9.05;;
70297;SDS011;57702;44.420;20.298;2022-12-29T10:11:29;27.65;;;8.27;;
70297;SDS011;57702;44.420;20.298;2022-12-29T10:14:05;17.73;;;7.32;;
70297;SDS011;57702;44.420;20.298;2022-12-29T10:24:44;12.50;;;5.40;;
70297;SDS011;57702;44.420;20.298;2022-12-29T10:27:12;15.55;;;5.35;;
70297;SDS011;57702;44.420;20.298;2022-12-29T10:29:55;5.82;;;3.42;;
70297;SDS011;57702;44.420;20.298;2022-12-29T10:35:06;4.15;;;2.35;;
70297;SDS011;57702;44.420;20.298;2022-12-29T10:37:46;2.38;;;2.15;;
70297;SDS011;57702;44.420;20.298;2022-12-29T10:40:33;11.38;;;6.13;;
70297;SDS011;57702;44.420;20.298;2022-12-29T10:43:21;8.57;;;2.85;;
70297;SDS011;57702;44.420;20.298;2022-12-29T10:45:51;17.98;;;7.03;;
70297;SDS011;57702;44.420;20.298;2022-12-29T10:48:20;12.55;;;9.63;;
70297;SDS011;57702;44.420;20.298;2022-12-29T10:50:47;6.75;;;5.03;;
70297;SDS011;57702;44.420;20.298;2022-12-29T10:53:21;19.80;;;8.55;;
70297;SDS011;57702;44.420;20.298;2022-12-29T10:55:48;13.52;;;7.18;;
70297;SDS011;57702;44.420;20.298;2022-12-29T10:58:15;37.60;;;16.70;;
70297;SDS011;57702;44.420;20.298;2022-12-29T11:00:41;4.30;;;2.67;;
70297;SDS011;57702;44.420;20.298;2022-12-29T11:06:11;10.23;;;3.78;;
70297;SDS011;57702;44.420;20.298;2022-12-29T11:09:00;2.47;;;2.00;;
70297;SDS011;57702;44.420;20.298;2022-12-29T11:11:32;12.52;;;6.97;;
70297;SDS011;57702;44.420;20.298;2022-12-29T11:14:12;11.75;;;6.63;;
70297;SDS011;57702;44.420;20.298;2022-12-29T11:17:16;18.23;;;7.75;;
70297;SDS011;57702;44.420;20.298;2022-12-29T11:22:38;10.05;;;3.30;;
70297;SDS011;57702;44.420;20.298;2022-12-29T11:25:19;0.47;;;0.47;;
70297;SDS011;57702;44.420;20.298;2022-12-29T11:30:25;1.67;;;1.23;;
70297;SDS011;57702;44.420;20.298;2022-12-29T11:32:54;1.30;;;1.20;;
70297;SDS011;57702;44.420;20.298;2022-12-29T11:35:31;7.32;;;1.33;;
70297;SDS011;57702;44.420;20.298;2022-12-29T11:37:58;1.98;;;1.88;;
70297;SDS011;57702;44.420;20.298;2022-12-29T11:40:24;0.63;;;0.63;;
70297;SDS011;57702;44.420;20.298;2022-12-29T11:42:52;2.38;;;1.25;;
70297;SDS011;57702;44.420;20.298;2022-12-29T11:45:19;8.45;;;2.75;;
70297;SDS011;57702;44.420;20.298;2022-12-29T11:47:53;2.05;;;1.40;;
70297;SDS011;57702;44.420;20.298;2022-12-29T11:50:21;4.40;;;2.97;;
70297;SDS011;57702;44.420;20.298;2022-12-29T11:52:48;7.47;;;3.50;;
70297;SDS011;57702;44.420;20.298;2022-12-29T11:55:17;1.25;;;1.25;;
70297;SDS011;57702;44.420;20.298;2022-12-29T11:57:44;4.20;;;2.80;;
70297;SDS011;57702;44.420;20.298;2022-12-29T12:00:14;3.90;;;1.48;;
70297;SDS011;57702;44.420;20.298;2022-12-29T12:02:42;2.33;;;2.10;;
70297;SDS011;57702;44.420;20.298;2022-12-29T12:07:40;0.73;;;0.73;;
70297;SDS011;57702;44.420;20.298;2022-12-29T12:10:18;3.50;;;1.02;;
70297;SDS011;57702;44.420;20.298;2022-12-29T12:13:02;0.80;;;0.80;;
70297;SDS011;57702;44.420;20.298;2022-12-29T12:15:39;1.17;;;0.57;;
70297;SDS011;57702;44.420;20.298;2022-12-29T12:18:14;0.50;;;0.50;;
70297;SDS011;57702;44.420;20.298;2022-12-29T12:26:20;0.17;;;0.17;;
70297;SDS011;57702;44.420;20.298;2022-12-29T12:34:01;0.13;;;0.13;;
70297;SDS011;57702;44.420;20.298;2022-12-29T12:44:36;0.20;;;0.20;;
70297;SDS011;57702;44.420;20.298;2022-12-29T13:00:17;0.98;;;0.35;;
70297;SDS011;57702;44.420;20.298;2022-12-29T13:05:29;0.10;;;0.10;;
70297;SDS011;57702;44.420;20.298;2022-12-29T13:10:35;21.85;;;6.60;;
70297;SDS011;57702;44.420;20.298;2022-12-29T13:21:03;24.75;;;3.38;;
70297;SDS011;57702;44.420;20.298;2022-12-29T13:28:38;34.45;;;9.77;;
70297;SDS011;57702;44.420;20.298;2022-12-29T13:36:40;18.60;;;4.90;;
70297;SDS011;57702;44.420;20.298;2022-12-29T13:41:49;31.38;;;3.85;;
70297;SDS011;57702;44.420;20.298;2022-12-29T13:44:51;14.45;;;4.55;;
70297;SDS011;57702;44.420;20.298;2022-12-29T13:47:24;15.15;;;2.95;;
70297;SDS011;57702;44.420;20.298;2022-12-29T13:49:51;5.13;;;2.58;;
70297;SDS011;57702;44.420;20.298;2022-12-29T13:54:56;7.82;;;3.15;;
70297;SDS011;57702;44.420;20.298;2022-12-29T14:00:03;11.43;;;3.30;;
70297;SDS011;57702;44.420;20.298;2022-12-29T14:08:39;5.97;;;3.17;;
70297;SDS011;57702;44.420;20.298;2022-12-29T14:11:11;2.20;;;2.03;;
70297;SDS011;57702;44.420;20.298;2022-12-29T14:13:40;2.75;;;2.55;;
70297;SDS011;57702;44.420;20.298;2022-12-29T14:16:07;1.85;;;1.35;;
70297;SDS011;57702;44.420;20.298;2022-12-29T14:18:43;3.72;;;1.85;;
70297;SDS011;57702;44.420;20.298;2022-12-29T14:23:41;24.67;;;9.00;;
70297;SDS011;57702;44.420;20.298;2022-12-29T14:26:12;2.22;;;2.13;;
70297;SDS011;57702;44.420;20.298;2022-12-29T14:28:39;3.90;;;2.38;;
70297;SDS011;57702;44.420;20.298;2022-12-29T14:36:59;11.70;;;6.93;;
70297;SDS011;57702;44.420;20.298;2022-12-29T14:47:11;9.88;;;7.13;;
70297;SDS011;57702;44.420;20.298;2022-12-29T14:49:42;31.75;;;8.88;;
70297;SDS011;57702;44.420;20.298;2022-12-29T14:52:23;11.15;;;6.82;;
70297;SDS011;57702;44.420;20.298;2022-12-29T14:54:54;18.70;;;7.28;;
70297;SDS011;57702;44.420;20.298;2022-12-29T14:57:28;21.90;;;8.65;;
70297;SDS011;57702;44.420;20.298;2022-12-29T14:59:57;49.40;;;14.70;;
70297;SDS011;57702;44.420;20.298;2022-12-29T15:02:26;22.65;;;10.82;;
70297;SDS011;57702;44.420;20.298;2022-12-29T15:04:54;18.45;;;8.82;;
70297;SDS011;57702;44.420;20.298;2022-12-29T15:07:24;9.85;;;6.65;;
70297;SDS011;57702;44.420;20.298;2022-12-29T15:10:00;9.98;;;4.00;;
70297;SDS011;57702;44.420;20.298;2022-12-29T15:12:35;8.82;;;4.10;;
70297;SDS011;57702;44.420;20.298;2022-12-29T15:15:16;83.80;;;22.23;;
70297;SDS011;57702;44.420;20.298;2022-12-29T15:17:44;15.75;;;8.55;;
70297;SDS011;57702;44.420;20.298;2022-12-29T15:23:12;8.65;;;4.38;;
70297;SDS011;57702;44.420;20.298;2022-12-29T15:26:00;10.85;;;3.30;;
70297;SDS011;57702;44.420;20.298;2022-12-29T15:28:28;34.92;;;3.92;;
70297;SDS011;57702;44.420;20.298;2022-12-29T15:31:04;9.63;;;4.18;;
70297;SDS011;57702;44.420;20.298;2022-12-29T15:33:36;4.00;;;2.13;;
70297;SDS011;57702;44.420;20.298;2022-12-29T15:36:03;2.53;;;1.85;;
70297;SDS011;57702;44.420;20.298;2022-12-29T15:38:30;6.70;;;3.83;;
70297;SDS011;57702;44.420;20.298;2022-12-29T15:40:58;30.23;;;4.97;;
70297;SDS011;57702;44.420;20.298;2022-12-29T15:45:54;8.60;;;3.97;;
70297;SDS011;57702;44.420;20.298;2022-12-29T15:48:21;8.07;;;3.45;;
70297;SDS011;57702;44.420;20.298;2022-12-29T15:50:51;23.33;;;5.80;;
70297;SDS011;57702;44.420;20.298;2022-12-29T15:53:30;38.45;;;8.85;;
70297;SDS011;57702;44.420;20.298;2022-12-29T15:55:59;13.48;;;6.65;;
70297;SDS011;57702;44.420;20.298;2022-12-29T15:58:27;13.05;;;4.50;;
70297;SDS011;57702;44.420;20.298;2022-12-29T16:01:00;14.60;;;4.82;;
70297;SDS011;57702;44.420;20.298;2022-12-29T16:03:29;4.88;;;3.58;;
70297;SDS011;57702;44.420;20.298;2022-12-29T16:05:58;9.43;;;4.38;;
70297;SDS011;57702;44.420;20.298;2022-12-29T16:08:35;5.90;;;2.45;;
70297;SDS011;57702;44.420;20.298;2022-12-29T16:11:03;28.20;;;5.55;;
70297;SDS011;57702;44.420;20.298;2022-12-29T16:13:39;9.05;;;4.40;;
70297;SDS011;57702;44.420;20.298;2022-12-29T16:16:26;5.75;;;3.25;;
70297;SDS011;57702;44.420;20.298;2022-12-29T16:18:53;5.75;;;3.83;;
70297;SDS011;57702;44.420;20.298;2022-12-29T16:21:25;17.98;;;4.60;;
70297;SDS011;57702;44.420;20.298;2022-12-29T16:23:52;15.65;;;4.90;;
70297;SDS011;57702;44.420;20.298;2022-12-29T16:26:20;24.02;;;5.65;;
70297;SDS011;57702;44.420;20.298;2022-12-29T16:28:48;15.77;;;5.43;;
70297;SDS011;57702;44.420;20.298;2022-12-29T16:33:46;12.40;;;6.38;;
70297;SDS011;57702;44.420;20.298;2022-12-29T16:38:48;13.40;;;5.22;;
70297;SDS011;57702;44.420;20.298;2022-12-29T16:41:35;7.32;;;4.10;;
70297;SDS011;57702;44.420;20.298;2022-12-29T16:49:34;11.95;;;6.30;;
70297;SDS011;57702;44.420;20.298;2022-12-29T16:52:12;24.55;;;8.45;;
70297;SDS011;57702;44.420;20.298;2022-12-29T16:54:49;13.13;;;4.30;;
70297;SDS011;57702;44.420;20.298;2022-12-29T16:57:24;25.02;;;7.07;;
70297;SDS011;57702;44.420;20.298;2022-12-29T16:59:53;92.03;;;29.37;;
70297;SDS011;57702;44.420;20.298;2022-12-29T17:02:21;110.93;;;40.90;;
70297;SDS011;57702;44.420;20.298;2022-12-29T17:04:57;160.85;;;53.95;;
70297;SDS011;57702;44.420;20.298;2022-12-29T17:07:24;76.80;;;28.52;;
70297;SDS011;57702;44.420;20.298;2022-12-29T17:09:51;66.72;;;26.02;;
70297;SDS011;57702;44.420;20.298;2022-12-29T17:12:25;39.75;;;15.13;;